Time;durP1;ratioP1;P1;durP2;ratioP2;P2;SDS_P1;SDS_P2;PMS_P1;PMS_P2;Temp;Humidity;BMP_temperature;BMP_pressure;BME280_temperature;BME280_humidity;BME280_pressure;Samples;Min_cycle;Max_cycle;Signal;HPM_P1;HPM_P2
2021/10/12 00:00:19;;;;;;;19.10;17.20;;;;;;;11.61;81.13;99431.97;4964353;28;102633;-65
2021/10/12 00:02:49;;;;;;;15.03;13.73;;;;;;;11.72;80.86;99426.00;4961886;28;103315;-65
2021/10/12 00:05:17;;;;;;;20.07;18.17;;;;;;;11.70;80.66;99428.75;4966723;28;102911;-65
2021/10/12 00:07:46;;;;;;;18.43;16.73;;;;;;;11.78;80.52;99425.59;4961309;28;102840;-65
2021/10/12 00:10:14;;;;;;;19.13;17.42;;;;;;;11.78;80.24;99423.81;4957701;28;104089;-60
2021/10/12 00:12:42;;;;;;;15.93;14.52;;;;;;;11.83;80.33;99419.06;4959555;28;103348;-61
2021/10/12 00:15:12;;;;;;;18.92;17.20;;;;;;;11.81;80.65;99414.81;4961958;28;103305;-59
2021/10/12 00:17:40;;;;;;;20.45;18.55;;;;;;;11.69;81.39;99424.41;4965526;28;102613;-65
2021/10/12 00:20:09;;;;;;;19.48;17.67;;;;;;;11.78;80.94;99418.53;4964292;28;104338;-61
2021/10/12 00:22:38;;;;;;;18.47;16.77;;;;;;;11.81;81.02;99407.72;4963010;28;104086;-60
2021/10/12 00:25:07;;;;;;;17.27;15.70;;;;;;;11.86;80.63;99413.56;4940040;28;103323;-60
2021/10/12 00:27:35;;;;;;;16.92;15.43;;;;;;;11.88;80.70;99414.28;4961172;28;102627;-60
2021/10/12 00:30:04;;;;;;;16.45;14.95;;;;;;;11.90;80.50;99414.22;4941806;28;103282;-61
2021/10/12 00:32:34;;;;;;;17.37;15.70;;;;;;;11.87;80.66;99404.69;4958585;28;104361;-60
2021/10/12 00:35:03;;;;;;;15.85;14.45;;;;;;;11.84;80.74;99407.53;4965878;28;103190;-59
2021/10/12 00:37:31;;;;;;;13.70;12.50;;;;;;;11.86;80.04;99397.69;4967624;28;102990;-60
2021/10/12 00:39:59;;;;;;;14.60;13.30;;;;;;;11.91;79.42;99400.84;4959799;28;102925;-61
2021/10/12 00:42:27;;;;;;;19.92;18.13;;;;;;;11.74;79.11;99406.41;4962978;28;103274;-61
2021/10/12 00:44:58;;;;;;;18.37;16.67;;;;;;;11.66;80.28;99398.09;4961363;28;103487;-60
2021/10/12 00:47:26;;;;;;;19.57;17.77;;;;;;;11.41;81.71;99406.81;4961700;28;103036;-61
2021/10/12 00:49:55;;;;;;;19.80;17.90;;;;;;;11.39;82.28;99397.25;4945186;28;103095;-60
2021/10/12 00:52:23;;;;;;;16.95;15.45;;;;;;;11.56;81.30;99397.03;4963643;28;103912;-61
2021/10/12 00:54:51;;;;;;;15.73;14.32;;;;;;;11.64;80.73;99402.66;4961920;28;103184;-60
2021/10/12 00:57:19;;;;;;;14.82;13.52;;;;;;;11.68;80.35;99404.13;4948418;28;102689;-60
2021/10/12 00:59:48;;;;;;;14.23;13.02;;;;;;;11.77;79.85;99394.78;4966659;28;102644;-60
2021/10/12 01:02:16;;;;;;;14.70;13.50;;;;;;;11.80;79.58;99392.78;4953606;28;103319;-60
2021/10/12 01:04:44;;;;;;;14.80;13.40;;;;;;;11.81;79.31;99394.50;4946642;28;103292;-65
2021/10/12 01:07:14;;;;;;;17.85;16.25;;;;;;;11.77;78.95;99397.41;4963473;28;103376;-65
2021/10/12 01:09:41;;;;;;;13.10;11.90;;;;;;;11.73;78.91;99395.94;4956670;28;102849;-65
2021/10/12 01:12:10;;;;;;;16.25;14.77;;;;;;;11.76;78.36;99385.97;4966074;28;103233;-66
2021/10/12 01:14:37;;;;;;;13.93;12.63;;;;;;;11.72;78.66;99384.50;4959648;28;103212;-65
2021/10/12 01:17:05;;;;;;;13.98;12.77;;;;;;;11.74;78.58;99393.19;4960815;28;102652;-60
2021/10/12 01:19:34;;;;;;;13.60;12.40;;;;;;;11.75;78.47;99380.81;4962277;28;102676;-59
2021/10/12 01:22:04;;;;;;;19.92;18.02;;;;;;;11.57;78.79;99385.47;4948731;28;103242;-60
2021/10/12 01:24:32;;;;;;;17.27;15.77;;;;;;;11.49;79.93;99385.13;4960155;28;104196;-59
2021/10/12 01:27:00;;;;;;;14.10;12.90;;;;;;;11.55;79.90;99382.09;4959110;28;103226;-59
2021/10/12 01:29:28;;;;;;;18.77;17.08;;;;;;;11.49;79.60;99371.88;4958874;28;103979;-64
2021/10/12 01:31:56;;;;;;;15.63;14.23;;;;;;;11.50;80.28;99374.47;4958940;28;104022;-65
2021/10/12 01:34:24;;;;;;;18.77;17.15;;;;;;;11.53;79.95;99370.75;4960773;28;103328;-66
2021/10/12 01:36:52;;;;;;;18.92;17.15;;;;;;;11.42;80.40;99366.19;4960377;28;103097;-60
2021/10/12 01:39:21;;;;;;;14.57;13.27;;;;;;;11.55;80.12;99360.91;4964486;28;103900;-60
2021/10/12 01:41:49;;;;;;;13.67;12.47;;;;;;;11.66;79.84;99353.09;4945404;28;103322;-59
2021/10/12 01:44:18;;;;;;;13.37;12.27;;;;;;;11.72;79.18;99358.03;4960163;28;103226;-61
2021/10/12 01:46:46;;;;;;;12.73;11.63;;;;;;;11.78;79.16;99351.47;4958576;28;102631;-61
2021/10/12 01:49:14;;;;;;;21.63;19.63;;;;;;;11.19;81.10;99345.66;4961791;28;102665;-59
2021/10/12 01:51:43;;;;;;;16.95;15.45;;;;;;;11.37;82.60;99351.50;4957993;28;103507;-61
2021/10/12 01:54:16;;;;;;;21.27;19.20;;;;;;;11.23;82.23;99341.00;4956236;28;103230;-62
2021/10/12 01:56:46;;;;;;;19.33;17.45;;;;;;;11.45;82.75;99338.66;4967904;28;102700;-60
2021/10/12 01:59:14;;;;;;;18.17;16.45;;;;;;;11.44;83.39;99336.94;4960704;28;104237;-60
2021/10/12 02:01:42;;;;;;;19.77;17.88;;;;;;;11.47;83.05;99337.63;4949273;28;103311;-65
2021/10/12 02:04:10;;;;;;;15.60;14.20;;;;;;;11.59;82.41;99335.94;4962712;28;103188;-65
2021/10/12 02:06:39;;;;;;;16.87;15.37;;;;;;;11.65;82.03;99343.47;4959697;28;102693;-65
2021/10/12 02:09:06;;;;;;;19.38;17.58;;;;;;;11.69;82.09;99339.69;4963422;28;103001;-64
2021/10/12 02:11:35;;;;;;;18.48;16.70;;;;;;;11.76;81.92;99333.03;4971185;28;103490;-64
2021/10/12 02:14:04;;;;;;;17.92;16.33;;;;;;;11.67;81.98;99323.06;4964395;28;103253;-59
2021/10/12 02:16:32;;;;;;;14.30;13.10;;;;;;;11.74;80.95;99321.72;4963918;28;102694;-59
2021/10/12 02:19:00;;;;;;;20.35;18.25;;;;;;;11.68;80.14;99332.66;4965943;28;102904;-59
2021/10/12 02:21:28;;;;;;;15.52;14.13;;;;;;;11.72;80.07;99315.69;4962152;28;104564;-59
2021/10/12 02:23:56;;;;;;;13.23;12.02;;;;;;;11.78;79.68;99309.13;4963905;28;103216;-59
2021/10/12 02:26:24;;;;;;;15.85;14.45;;;;;;;11.80;79.26;99297.47;4962655;28;102591;-59
2021/10/12 02:28:52;;;;;;;19.63;17.73;;;;;;;11.31;82.21;99305.16;4959709;28;103035;-60
2021/10/12 02:31:22;;;;;;;25.38;22.77;;;;;;;10.50;86.74;99316.59;4964133;28;103181;-59
2021/10/12 02:33:50;;;;;;;23.35;21.05;;;;;;;10.68;86.85;99309.31;4965103;28;103203;-64
2021/10/12 02:36:18;;;;;;;28.02;25.02;;;;;;;9.89;90.45;99312.38;4964028;28;102716;-65
2021/10/12 02:38:46;;;;;;;28.70;25.83;;;;;;;9.73;92.88;99308.97;4962917;28;102631;-59
2021/10/12 02:41:14;;;;;;;25.48;22.98;;;;;;;10.12;90.65;99300.44;4962258;28;103228;-60
2021/10/12 02:43:42;;;;;;;27.70;24.85;;;;;;;10.02;91.46;99301.09;4964151;28;103276;-65
2021/10/12 02:46:10;;;;;;;24.90;22.40;;;;;;;10.54;88.94;99291.69;4961718;28;102816;-65
2021/10/12 02:48:40;;;;;;;19.00;17.20;;;;;;;10.89;87.65;99292.91;4961640;28;103045;-65
2021/10/12 02:51:08;;;;;;;19.75;17.85;;;;;;;11.02;86.41;99293.00;4964493;28;103428;-65
2021/10/12 02:53:36;;;;;;;22.33;20.20;;;;;;;10.88;87.60;99282.47;4960760;28;104026;-65
2021/10/12 02:56:04;;;;;;;22.25;20.05;;;;;;;10.91;87.28;99275.19;4964343;28;102645;-65
2021/10/12 02:58:32;;;;;;;21.90;19.60;;;;;;;10.98;87.04;99276.47;4963181;28;103922;-65
2021/10/12 03:01:00;;;;;;;16.60;15.10;;;;;;;11.22;85.64;99275.81;4961481;28;103169;-64
2021/10/12 03:03:28;;;;;;;20.52;18.52;;;;;;;11.39;84.40;99264.97;4970524;28;103917;-64
2021/10/12 03:05:57;;;;;;;17.38;15.77;;;;;;;11.46;83.88;99269.75;4962565;28;103071;-64
2021/10/12 03:08:26;;;;;;;16.13;14.63;;;;;;;11.54;83.17;99250.72;4962928;28;103856;-59
2021/10/12 03:10:54;;;;;;;14.73;13.32;;;;;;;11.60;82.94;99237.06;4963019;28;103857;-59
2021/10/12 03:13:22;;;;;;;18.98;17.17;;;;;;;11.59;81.94;99245.97;4962705;28;103265;-60
2021/10/12 03:15:50;;;;;;;18.88;17.17;;;;;;;11.49;82.51;99244.88;4963363;28;102758;-60
2021/10/12 03:18:18;;;;;;;19.63;17.83;;;;;;;11.42;83.53;99240.97;4970696;28;103018;-66
2021/10/12 03:20:46;;;;;;;23.40;21.08;;;;;;;11.14;84.57;99235.81;4963447;28;103277;-65
2021/10/12 03:23:15;;;;;;;22.42;20.20;;;;;;;11.13;84.36;99231.47;4964878;28;103204;-60
2021/10/12 03:25:43;;;;;;;23.20;21.00;;;;;;;11.07;85.58;99227.44;4961747;28;102784;-60
2021/10/12 03:28:11;;;;;;;23.50;21.10;;;;;;;10.79;86.21;99212.53;4964548;28;102626;-60
2021/10/12 03:30:39;;;;;;;25.00;22.60;;;;;;;10.66;87.02;99218.72;4964140;28;103129;-60
2021/10/12 03:33:08;;;;;;;21.27;19.08;;;;;;;10.90;86.83;99212.69;4964977;28;103197;-63
2021/10/12 03:35:39;;;;;;;21.00;19.00;;;;;;;11.13;85.65;99221.75;4940071;28;102774;-59
2021/10/12 03:38:07;;;;;;;23.67;21.27;;;;;;;10.82;86.81;99222.06;4939635;28;103878;-59
2021/10/12 03:40:36;;;;;;;23.85;21.50;;;;;;;10.72;87.47;99231.53;4963482;28;104111;-59
2021/10/12 03:43:04;;;;;;;24.15;21.77;;;;;;;10.60;87.79;99233.16;4965070;28;103031;-59
2021/10/12 03:45:32;;;;;;;21.27;19.27;;;;;;;10.79;87.88;99233.69;4961593;28;103645;-59
2021/10/12 03:48:00;;;;;;;19.90;17.83;;;;;;;11.01;86.76;99238.41;4939571;28;104054;-59
2021/10/12 03:50:28;;;;;;;15.50;14.10;;;;;;;11.24;85.80;99231.59;4949666;28;103290;-60
2021/10/12 03:52:56;;;;;;;21.63;19.50;;;;;;;11.25;84.45;99220.09;4961527;28;103266;-60
2021/10/12 03:55:24;;;;;;;18.27;16.50;;;;;;;11.35;84.71;99221.16;4963694;28;103356;-59
2021/10/12 03:57:54;;;;;;;18.35;16.65;;;;;;;11.45;84.26;99216.94;4941966;28;104079;-60
2021/10/12 04:00:22;;;;;;;20.13;18.13;;;;;;;11.36;84.40;99222.84;4962252;28;103995;-60
2021/10/12 04:02:50;;;;;;;18.52;16.70;;;;;;;11.49;84.04;99221.06;4960552;28;103499;-60
2021/10/12 04:05:18;;;;;;;16.95;15.35;;;;;;;11.59;83.79;99220.34;4965369;28;103222;-60
2021/10/12 04:07:47;;;;;;;14.27;12.83;;;;;;;11.14;85.23;99219.94;4964999;28;102717;-60
2021/10/12 04:10:15;;;;;;;20.43;17.77;;;;;;;10.69;87.43;99218.53;4962577;28;104158;-70
2021/10/12 04:12:43;;;;;;;20.40;18.20;;;;;;;10.50;89.45;99218.84;4958280;28;103217;-69
2021/10/12 04:15:13;;;;;;;18.83;15.87;;;;;;;10.42;90.50;99221.97;4957291;28;102825;-70
2021/10/12 04:17:41;;;;;;;17.83;15.57;;;;;;;10.37;90.76;99217.94;4958147;28;102930;-60
2021/10/12 04:20:10;;;;;;;18.90;17.00;;;;;;;10.13;93.06;99222.13;4944943;28;103372;-60
2021/10/12 04:22:38;;;;;;;14.63;12.43;;;;;;;10.09;94.14;99213.50;4933283;28;103379;-60
2021/10/12 04:25:09;;;;;;;12.30;10.97;;;;;;;10.24;92.78;99209.09;4956193;28;102793;-60
2021/10/12 04:27:37;;;;;;;13.17;11.27;;;;;;;10.31;92.21;99213.03;4950888;28;104386;-70
2021/10/12 04:30:06;;;;;;;16.73;14.43;;;;;;;10.33;92.26;99213.81;4960155;28;103899;-60
2021/10/12 04:32:35;;;;;;;21.23;14.73;;;;;;;10.00;95.09;99215.84;4958035;28;103300;-60
2021/10/12 04:35:04;;;;;;;12.77;11.37;;;;;;;10.12;95.92;99212.47;4959724;28;102659;-59
2021/10/12 04:37:33;;;;;;;17.30;14.40;;;;;;;10.21;95.95;99214.56;4959504;28;103993;-61
2021/10/12 04:40:01;;;;;;;15.03;12.23;;;;;;;10.23;96.03;99208.25;4963181;28;103530;-60
2021/10/12 04:42:29;;;;;;;14.30;12.13;;;;;;;10.18;96.83;99204.19;4962788;28;103200;-60
2021/10/12 04:44:58;;;;;;;14.07;11.07;;;;;;;10.24;96.31;99212.59;4945654;28;102743;-60
2021/10/12 04:47:26;;;;;;;19.10;15.27;;;;;;;10.24;96.04;99209.09;4968064;28;104079;-60
2021/10/12 04:49:56;;;;;;;14.03;11.43;;;;;;;10.23;96.10;99207.38;4970880;28;104081;-60
2021/10/12 04:52:24;;;;;;;13.47;11.30;;;;;;;10.27;95.94;99208.91;4966346;28;103332;-60
2021/10/12 04:54:52;;;;;;;19.63;17.53;;;;;;;10.19;96.16;99206.72;4970873;28;102729;-60
2021/10/12 04:57:20;;;;;;;15.10;13.33;;;;;;;10.12;97.24;99210.66;4959716;28;103705;-60
2021/10/12 04:59:48;;;;;;;15.13;11.37;;;;;;;10.13;97.07;99206.28;4950097;28;103246;-60
2021/10/12 05:02:16;;;;;;;17.37;14.43;;;;;;;10.17;97.29;99198.06;4937894;28;103252;-58
2021/10/12 05:04:44;;;;;;;15.73;13.70;;;;;;;10.14;97.61;99210.59;4969848;28;102626;-59
2021/10/12 05:07:14;;;;;;;17.07;14.93;;;;;;;10.04;98.05;99206.81;4966346;28;102696;-59
2021/10/12 05:09:42;;;;;;;16.63;14.10;;;;;;;10.09;98.53;99204.72;4964783;28;103850;-60
2021/10/12 05:12:10;;;;;;;12.03;10.83;;;;;;;10.09;98.09;99205.59;4953218;28;103611;-60
2021/10/12 05:14:38;;;;;;;14.10;11.27;;;;;;;10.08;98.85;99203.00;4955016;28;102564;-59
2021/10/12 05:17:14;;;;;;;10.90;9.73;;;;;;;10.11;98.71;99197.56;4959298;28;103635;-58
2021/10/12 05:19:42;;;;;;;12.93;11.20;;;;;;;10.10;98.29;99195.88;4971161;28;103077;-59
2021/10/12 05:22:10;;;;;;;13.07;11.20;;;;;;;10.07;99.04;99198.69;4974496;28;103261;-60
2021/10/12 05:24:39;;;;;;;27.27;18.10;;;;;;;9.77;100.00;99206.69;4963937;28;102604;-60
2021/10/12 05:27:08;;;;;;;22.83;20.17;;;;;;;10.17;99.76;99205.13;4962379;28;103778;-60
2021/10/12 05:29:37;;;;;;;19.07;17.27;;;;;;;10.50;98.26;99202.16;4940755;28;103554;-60
2021/10/12 05:32:06;;;;;;;14.13;12.82;;;;;;;10.88;96.06;99193.44;4969240;28;103217;-61
2021/10/12 05:34:34;;;;;;;13.00;11.80;;;;;;;11.12;94.55;99190.09;4958505;28;102696;-60
2021/10/12 05:37:02;;;;;;;13.43;10.93;;;;;;;10.77;95.68;99188.00;4950340;28;102762;-60
2021/10/12 05:39:30;;;;;;;12.70;10.10;;;;;;;10.64;97.00;99186.28;4963879;28;103259;-60
2021/10/12 05:41:59;;;;;;;13.30;11.90;;;;;;;10.54;97.65;99186.00;4948597;28;103874;-60
2021/10/12 05:44:27;;;;;;;14.27;12.10;;;;;;;10.49;97.92;99182.81;4940557;28;102979;-67
2021/10/12 05:46:55;;;;;;;13.67;12.27;;;;;;;10.43;98.09;99184.06;4968725;28;102724;-60
2021/10/12 05:49:23;;;;;;;16.13;13.60;;;;;;;10.40;98.62;99178.13;4964447;28;103279;-60
2021/10/12 05:51:51;;;;;;;15.90;13.83;;;;;;;10.36;98.88;99171.31;4945151;28;103285;-60
2021/10/12 05:54:22;;;;;;;19.40;16.57;;;;;;;10.29;99.45;99175.31;4944797;28;103317;-61
2021/10/12 05:56:56;;;;;;;13.07;11.37;;;;;;;10.29;99.47;99170.03;4966229;28;104045;-60
2021/10/12 05:59:25;;;;;;;12.20;10.07;;;;;;;10.32;99.08;99172.47;4949325;28;103399;-67
2021/10/12 06:01:53;;;;;;;15.57;13.57;;;;;;;10.28;99.74;99178.88;4960271;28;103214;-67
2021/10/12 06:04:21;;;;;;;17.10;14.37;;;;;;;10.23;100.00;99173.06;4967033;28;102558;-66
2021/10/12 06:06:49;;;;;;;19.53;16.10;;;;;;;10.12;100.00;99183.41;4973720;28;102698;-67
2021/10/12 06:09:17;;;;;;;19.60;14.97;;;;;;;10.06;100.00;99186.44;4964461;28;103283;-67
2021/10/12 06:11:45;;;;;;;13.20;11.73;;;;;;;10.15;100.00;99181.47;4962535;28;103829;-67
2021/10/12 06:14:14;;;;;;;15.17;11.93;;;;;;;10.21;100.00;99180.22;4962144;28;102607;-67
2021/10/12 06:16:44;;;;;;;14.63;12.67;;;;;;;10.24;100.00;99187.97;4968508;28;103497;-59
2021/10/12 06:19:12;;;;;;;15.60;11.53;;;;;;;10.29;100.00;99185.88;4955003;28;103355;-59
2021/10/12 06:21:40;;;;;;;14.87;13.30;;;;;;;10.32;100.00;99189.19;4968657;28;103225;-59
2021/10/12 06:24:08;;;;;;;18.73;15.47;;;;;;;10.25;100.00;99195.78;4950802;28;102694;-59
2021/10/12 06:26:36;;;;;;;18.53;13.87;;;;;;;10.21;100.00;99194.28;4962053;28;102838;-59
2021/10/12 06:29:04;;;;;;;13.80;11.70;;;;;;;10.28;100.00;99190.31;4968258;28;103268;-59
2021/10/12 06:40:49;;;;;;;16.30;13.20;;;;;;;10.40;100.00;99191.31;4985340;22;104828;-66
2021/10/12 06:43:19;;;;;;;15.57;12.60;;;;;;;10.42;100.00;99194.69;4984489;28;104035;-66
2021/10/12 06:45:48;;;;;;;14.10;11.90;;;;;;;10.44;100.00;99188.38;5012362;27;102685;-59
2021/10/12 06:48:16;;;;;;;22.70;16.80;;;;;;;10.38;100.00;99191.44;5021788;28;102885;-59
2021/10/12 06:50:44;;;;;;;14.93;11.90;;;;;;;10.47;100.00;99192.63;5015047;22;102891;-59
2021/10/12 06:53:27;;;;;;;13.43;10.73;;;;;;;10.46;100.00;99199.72;4998113;28;103359;-59
2021/10/12 06:55:56;;;;;;;13.40;10.67;;;;;;;10.51;100.00;99186.19;5000261;28;103281;-59
2021/10/12 06:58:24;;;;;;;13.77;11.63;;;;;;;10.49;100.00;99190.75;4992425;28;102926;-59
2021/10/12 07:00:55;;;;;;;10.93;8.43;;;;;;;10.55;100.00;99186.84;4997720;28;103249;-59
2021/10/12 07:03:23;;;;;;;11.60;7.60;;;;;;;10.54;100.00;99190.44;4997712;28;104359;-59
2021/10/12 07:05:52;;;;;;;15.77;10.83;;;;;;;10.57;100.00;99188.44;4997068;28;103199;-59
2021/10/12 07:08:20;;;;;;;11.70;9.03;;;;;;;10.59;100.00;99186.53;4999037;28;102672;-67
2021/10/12 07:10:48;;;;;;;21.27;14.33;;;;;;;10.62;100.00;99194.28;4979248;28;103020;-60
2021/10/12 07:13:19;;;;;;;10.50;9.37;;;;;;;10.58;100.00;99187.50;4997952;28;103241;-60
2021/10/12 07:15:47;;;;;;;15.60;12.60;;;;;;;10.53;100.00;99186.09;4996623;28;103233;-60
2021/10/12 07:18:17;;;;;;;22.10;15.47;;;;;;;10.40;100.00;99189.53;4997290;28;102596;-59
2021/10/12 07:20:45;;;;;;;17.23;13.57;;;;;;;10.60;100.00;99185.63;4998695;28;103120;-68
2021/10/12 07:23:14;;;;;;;17.07;13.07;;;;;;;10.55;100.00;99185.06;5001794;28;103355;-67
2021/10/12 07:25:42;;;;;;;14.20;11.97;;;;;;;10.59;100.00;99183.06;5001013;28;103137;-65
2021/10/12 07:28:10;;;;;;;19.93;13.57;;;;;;;10.60;100.00;99180.31;5001300;28;102749;-64
2021/10/12 07:30:39;;;;;;;14.37;12.77;;;;;;;10.55;100.00;99179.78;4985119;28;103129;-66
2021/10/12 07:33:08;;;;;;;14.10;11.30;;;;;;;10.67;100.00;99178.13;4999468;28;103869;-66
2021/10/12 07:35:50;;;;;;;18.87;12.37;;;;;;;10.64;100.00;99181.81;5003508;28;103271;-67
2021/10/12 07:38:18;;;;;;;21.80;12.80;;;;;;;10.64;100.00;99183.63;5002474;28;102556;-68
2021/10/12 07:40:46;;;;;;;15.50;11.87;;;;;;;10.69;100.00;99186.81;5002088;28;102953;-67
2021/10/12 07:43:14;;;;;;;12.83;10.83;;;;;;;10.81;99.95;99184.19;4994771;28;103970;-67
2021/10/12 07:45:45;;;;;;;15.60;11.00;;;;;;;10.74;100.00;99190.00;5003689;28;103279;-67
2021/10/12 07:48:13;;;;;;;14.20;11.47;;;;;;;10.67;99.97;99197.47;5000317;28;102642;-67
2021/10/12 07:50:42;;;;;;;11.00;7.77;;;;;;;10.85;100.00;99195.44;4998586;28;104054;-66
2021/10/12 07:53:10;;;;;;;11.57;10.23;;;;;;;10.92;98.80;99186.97;4987234;28;103485;-66
2021/10/12 07:55:40;;;;;;;10.30;9.10;;;;;;;10.93;99.26;99188.69;5003020;28;102564;-67
2021/10/12 07:58:08;;;;;;;9.20;8.07;;;;;;;10.98;98.96;99191.88;5003841;28;102595;-59
2021/10/12 08:00:37;;;;;;;8.97;8.13;;;;;;;11.06;98.86;99183.41;5001102;28;103069;-66
2021/10/12 08:03:07;;;;;;;10.17;8.57;;;;;;;11.07;99.35;99183.34;4985060;28;103977;-65
2021/10/12 08:05:35;;;;;;;9.93;7.83;;;;;;;11.18;98.68;99181.75;5001722;28;102548;-68
2021/10/12 08:08:04;;;;;;;11.07;9.93;;;;;;;11.11;98.03;99185.78;5001587;28;102643;-66
2021/10/12 08:10:33;;;;;;;12.67;10.40;;;;;;;11.17;98.21;99174.78;4990416;28;102912;-66
2021/10/12 08:13:04;;;;;;;18.53;12.70;;;;;;;10.96;98.55;99177.06;4984162;28;104126;-66
2021/10/12 08:15:36;;;;;;;10.07;9.03;;;;;;;11.01;99.57;99173.16;5002939;28;103305;-67
2021/10/12 08:18:07;;;;;;;19.37;14.23;;;;;;;10.78;100.00;99179.13;4995918;28;102537;-60
2021/10/12 08:20:36;;;;;;;11.37;10.17;;;;;;;10.87;100.00;99173.22;5000306;28;102728;-66
2021/10/12 08:23:04;;;;;;;20.90;11.83;;;;;;;10.95;99.10;99173.56;5002133;28;103409;-68
2021/10/12 08:25:32;;;;;;;16.03;11.90;;;;;;;11.01;97.86;99167.88;5000812;28;103228;-66
2021/10/12 08:28:00;;;;;;;13.03;9.30;;;;;;;11.16;97.61;99167.78;4991695;28;102520;-68
2021/10/12 08:30:28;;;;;;;8.53;7.37;;;;;;;11.37;97.30;99171.63;5001011;28;102708;-68
2021/10/12 08:32:58;;;;;;;8.73;7.73;;;;;;;11.55;96.56;99165.09;5000277;28;103388;-68
2021/10/12 08:35:27;;;;;;;10.43;8.87;;;;;;;11.53;97.17;99169.66;5006153;28;103369;-69
2021/10/12 08:37:55;;;;;;;12.07;7.70;;;;;;;11.58;97.13;99154.28;5002251;28;102635;-72
2021/10/12 08:40:23;;;;;;;;;;;;;;;11.75;97.77;99145.22;4983175;28;102752;-68
2021/10/12 08:42:52;;;;;;;;;;;;;;;11.69;96.28;99146.50;4990771;28;104241;-60
2021/10/12 08:45:22;;;;;;;14.40;12.07;;;;;;;11.95;94.18;99134.91;4996755;28;103270;-66
2021/10/12 08:47:52;;;;;;;11.97;10.73;;;;;;;11.90;93.93;99129.06;4996365;28;102634;-65
2021/10/12 08:50:24;;;;;;;13.63;11.33;;;;;;;11.81;94.01;99143.00;4997599;28;102814;-67
2021/10/12 08:52:54;;;;;;;10.73;8.73;;;;;;;11.93;94.81;99143.94;4996927;28;103283;-67
2021/10/12 08:55:22;;;;;;;10.93;9.60;;;;;;;12.13;95.17;99145.97;4999940;28;103365;-68
2021/10/12 08:57:50;;;;;;;13.80;8.87;;;;;;;12.08;94.80;99145.47;4999117;28;102796;-66
2021/10/12 09:00:20;;;;;;;12.13;9.27;;;;;;;12.02;94.33;99148.56;5001190;28;102668;-67
2021/10/12 09:02:57;;;;;;;13.53;9.73;;;;;;;12.32;94.47;99151.69;4988171;28;104415;-67
2021/10/12 09:05:27;;;;;;;12.47;8.33;;;;;;;12.44;92.68;99148.13;4998910;28;103169;-59
2021/10/12 09:07:58;;;;;;;12.90;9.33;;;;;;;12.38;91.06;99139.78;4997715;28;103429;-59
2021/10/12 09:10:26;;;;;;;12.03;9.27;;;;;;;12.62;91.06;99137.97;4988257;28;103098;-60
2021/10/12 09:12:58;;;;;;;9.60;7.17;;;;;;;12.86;91.74;99141.44;4998072;28;104006;-59
2021/10/12 09:15:26;;;;;;;9.37;7.40;;;;;;;12.74;92.00;99139.75;4997640;28;103484;-60
2021/10/12 09:17:55;;;;;;;8.77;7.83;;;;;;;12.89;90.79;99130.63;4998661;28;102607;-59
2021/10/12 09:20:32;;;;;;;7.30;6.57;;;;;;;13.11;91.68;99136.03;4999754;28;102822;-59
2021/10/12 09:23:08;;;;;;;9.67;8.67;;;;;;;12.72;89.41;99129.22;4996582;28;103276;-60
2021/10/12 09:25:37;;;;;;;10.57;8.80;;;;;;;12.76;90.70;99124.56;4998784;28;103190;-59
2021/10/12 09:28:07;;;;;;;8.53;7.37;;;;;;;12.83;91.03;99120.47;5000163;28;102935;-68
2021/10/12 09:30:37;;;;;;;;;;;;;;;12.87;90.77;99110.47;5002376;28;102910;-68
2021/10/12 09:33:06;;;;;;;;;;;;;;;13.09;90.56;99111.44;5002282;28;103884;-68
2021/10/12 09:35:34;;;;;;;;;;;;;;;13.24;89.03;99110.28;5011501;28;102721;-68
2021/10/12 09:38:07;;;;;;;;;;;;;;;13.14;87.11;99103.97;5001885;28;102694;-68
2021/10/12 09:40:37;;;;;;;;;;;;;;;13.06;87.79;99098.38;5001085;28;102903;-68
2021/10/12 09:43:06;;;;;;;;;;;;;;;12.70;87.84;99091.41;4998813;28;103188;-67
2021/10/12 09:45:40;;;;;;;;;;;;;;;12.77;89.28;99092.59;5003855;28;103263;-68
2021/10/12 09:48:27;;;;;;;;;;;;;;;12.53;90.42;99085.66;5001847;28;102625;-68
2021/10/12 09:51:06;;;;;;;;;;;;;;;12.51;89.24;99087.56;4995242;28;102747;-67
2021/10/12 09:53:35;;;;;;;;;;;;;;;12.12;88.99;99091.34;5001794;28;103243;-66
2021/10/12 09:56:03;;;;;;;;;;;;;;;12.12;90.14;99089.53;5002070;28;102591;-66
2021/10/12 09:58:32;;;;;;;;;;;;;;;12.01;91.02;99092.09;5001765;28;102611;-68
2021/10/12 10:01:00;;;;;;;;;;;;;;;12.02;92.63;99085.00;5001157;28;102777;-66
2021/10/12 10:03:29;;;;;;;;;;;;;;;11.96;90.71;99086.28;4988557;28;103234;-68
2021/10/12 10:05:59;;;;;;;;;;;;;;;12.18;90.80;99075.81;5000883;28;103213;-68
2021/10/12 10:08:29;;;;;;;;;;;;;;;12.37;89.64;99077.16;4996424;28;102709;-59
2021/10/12 10:11:18;;;;;;;;;;;;;;;12.39;88.79;99068.13;4996381;28;103119;-60
2021/10/12 10:13:48;;;;;;;;;;;;;;;12.26;90.72;99075.28;4992696;28;103984;-60
2021/10/12 10:16:16;;;;;;;;;;;;;;;12.58;89.88;99078.19;4999004;28;103243;-64
2021/10/12 10:18:45;;;;;;;;;;;;;;;12.85;88.28;99076.16;4998841;28;102663;-60
2021/10/12 10:21:13;;;;;;;;;;;;;;;12.65;89.04;99069.69;4998471;28;102715;-59
2021/10/12 10:23:57;;;;;;;;;;;;;;;12.32;89.24;99060.75;4999208;28;103223;-68
2021/10/12 10:26:30;;;;;;;;;;;;;;;12.59;89.25;99058.69;4988998;28;103215;-70
2021/10/12 10:29:14;;;;;;;;;;;;;;;12.49;89.11;99047.91;5002257;28;102714;-68
2021/10/12 10:31:42;;;;;;;;;;;;;;;12.80;87.27;99041.16;5004616;28;102704;-68
2021/10/12 10:34:29;;;;;;;;;;;;;;;13.02;84.55;99040.38;4986555;28;103334;-68
2021/10/12 10:37:15;;;;;;;;;;;;;;;13.18;83.54;99036.47;4998994;28;102789;-66
2021/10/12 10:39:47;;;;;;;;;;;;;;;13.02;82.51;99037.72;4997088;28;102627;-66
2021/10/12 10:42:46;;;;;;;;;;;;;;;13.09;83.67;99031.84;4994393;28;103222;-66
2021/10/12 10:45:14;;;;;;;;;;;;;;;13.02;82.48;99032.44;5002492;28;103347;-66
2021/10/12 10:47:48;;;;;;;;;;;;;;;12.77;83.18;99036.94;5004369;28;102916;-68
2021/10/12 10:50:17;;;;;;;;;;;;;;;12.80;83.92;99030.53;5002374;28;102624;-68
2021/10/12 10:52:46;;;;;;;;;;;;;;;12.87;83.61;99025.63;4990114;28;103110;-60
2021/10/12 10:55:19;;;;;;;;;;;;;;;12.69;84.47;99025.22;5000649;28;103987;-60
2021/10/12 10:58:05;;;;;;;;;;;;;;;12.62;83.81;99021.34;4999325;28;103182;-60
2021/10/12 11:00:37;;;;;;;;;;;;;;;12.57;83.06;99013.75;5000155;28;102663;-59
2021/10/12 11:03:06;;;;;;;;;;;;;;;12.49;83.31;99012.66;4997464;28;103034;-59
2021/10/12 11:05:43;;;;;;;;;;;;;;;12.39;82.62;99009.81;4998444;28;103342;-60
2021/10/12 11:08:16;;;;;;;;;;;;;;;12.51;82.56;99016.03;4999855;28;103176;-59
2021/10/12 11:10:44;;;;;;;;;;;;;;;12.48;81.61;99013.59;4992344;28;102939;-59
2021/10/12 11:13:26;;;;;;;;;;;;;;;12.77;82.45;99005.13;4997257;28;102872;-60
2021/10/12 11:15:54;;;;;;;;;;;;;;;12.51;81.93;99008.06;5001597;28;103233;-59
2021/10/12 11:18:22;;;;;;;;;;;;;;;12.69;81.79;99006.66;5000130;28;103153;-60
2021/10/12 11:20:51;;;;;;;;;;;;;;;12.95;82.11;98992.25;5001000;28;102674;-59
2021/10/12 11:23:24;;;;;;;;;;;;;;;12.66;81.69;98994.50;4982853;28;102779;-60
2021/10/12 11:25:59;;;;;;;;;;;;;;;12.63;82.12;98991.25;5000926;28;102962;-58
2021/10/12 11:28:30;;;;;;;;;;;;;;;12.75;81.27;98993.78;5001471;28;103075;-59
2021/10/12 11:31:02;;;;;;;;;;;;;;;13.14;80.53;98981.09;4999623;28;103044;-60
2021/10/12 11:33:31;;;;;;;;;;;;;;;13.20;78.94;98985.91;5001342;28;102649;-60
2021/10/12 11:36:02;;;;;;;;;;;;;;;13.28;79.92;98972.88;5003106;28;103244;-60
2021/10/12 11:38:31;;;;;;;;;;;;;;;13.39;79.61;98966.75;5001511;28;103260;-68
2021/10/12 11:41:00;;;;;;;;;;;;;;;13.21;79.59;98961.94;4993229;28;102819;-60
2021/10/12 11:43:34;;;;;;;;;;;;;;;13.15;80.20;98967.72;5000627;28;102738;-59